Adamsburg, Pennsylvania
Current Conditions -  °F | °C
As of 5:50 PM on Monday 22 Dec 2014 (Local Time) from KLBE Reporting Station
Broken Clouds Broken Clouds  
Wind Chill: 28°   Ceiling: 3500
Heat Index: 36°   Visibility: 8mi
Dew Point: 32°   Wind: 12mph
Humidity: 87%   Direction: 90°E
Pressure: 30.04"   Gusts: NA
Location:  40.31°N, 79.66°W
Report Text: KLBE 222250Z 09010KT 8SM SCT017 BKN035 02/00 A3004
Loading
Personal Weather Stations






























Interactive Weather Map New forecast layout! Learn more

10-Day Weather Forecast

Advertisements
Track Severe Weather on mobile